This is the latest recevied weather packets stored in our database for station/object N4CRH-13. If no packets are shown the sender has not sent any weather packets the latest 10 day(s).
| Time | Temp. | Humidity | Pressure | Rain* | Wind** | Luminosity | Snow |
|---|---|---|---|---|---|---|---|
| 1777896653 | 6.67° C | 39% | 1289.6 hPa | 0 mm | - | 8 W/m² | - |
| 1777896350 | 5.56° C | 48% | 1289.5 hPa | 0 mm | - | 5 W/m² | - |
| 1777896048 | 6.11° C | 49% | 1289.6 hPa | 0 mm | - | 3 W/m² | - |
| 1777895745 | 5.56° C | 50% | 1289.6 hPa | 0 mm | - | 2 W/m² | - |
| 1777895442 | 6.11° C | 47% | 1289.4 hPa | 0 mm | - | 1 W/m² | - |
| 1777895140 | 6.11° C | 49% | 1289.5 hPa | 0 mm | - | 0 W/m² | - |
| 1777894837 | 5.56° C | 53% | 1289.1 hPa | 0 mm | - | 0 W/m² | - |
| 1777894534 | 6.11° C | 50% | 1289.5 hPa | 0 mm | - | 0 W/m² | - |
| 1777894232 | 5.56° C | 49% | 1289.5 hPa | 0 mm | - | 0 W/m² | - |
| 1777893928 | 5° C | 50% | 1289.6 hPa | 0 mm | - | 0 W/m² | - |
| 1777893624 | 5.56° C | 51% | 1289.6 hPa | 0 mm | - | 0 W/m² | - |
| 1777893321 | 5° C | 56% | 1289.6 hPa | 0 mm | - | 0 W/m² | - |
| 1777893017 | 4.44° C | 54% | 1289.6 hPa | 0 mm | - | 0 W/m² | - |
| 1777892715 | 5° C | 53% | 1289.5 hPa | 0 mm | - | 0 W/m² | - |
| 1777892410 | 5.56° C | 50% | 1289.6 hPa | 0 mm | - | 0 W/m² | - |
| 1777892106 | 5° C | 50% | 1289.5 hPa | 0 mm | - | 0 W/m² | - |
| 1777891803 | 5.56° C | 47% | 1289.7 hPa | 0 mm | - | 0 W/m² | - |
| 1777891500 | 6.11° C | 48% | 1289.6 hPa | 0 mm | - | 0 W/m² | - |
| 1777891196 | 5.56° C | 48% | 1289.6 hPa | 0 mm | - | 0 W/m² | - |
| 1777890896 | 6.67° C | 51% | 1289.7 hPa | 0 mm | - | 0 W/m² | - |
| 1777890591 | 6.67° C | 50% | 1289.5 hPa | 0 mm | - | 0 W/m² | - |
| 1777890287 | 7.22° C | 45% | 1289.6 hPa | 0 mm | - | 0 W/m² | - |
| 1777889983 | 8.89° C | 40% | 1289.7 hPa | 0 mm | - | 0 W/m² | - |
| 1777889681 | 8.89° C | 39% | 1289.8 hPa | 0 mm | - | 0 W/m² | - |
| 1777889378 | 8.89° C | 39% | 1289.7 hPa | 0 mm | - | 0 W/m² | - |
* Rain latest hour (hover to see other rain measurements)
** Current wind speed in m/s (hover to see current wind gust speed)